Valle Crucis, North Carolina
Current Conditions -  °F | °C
As of 9:55 AM on Thursday 30 Oct 2014 (Local Time) from KTNB Reporting Station
Clear Clear  
Wind Chill: 38°   Ceiling: Unl
Heat Index: 44°   Visibility: 10mi
Dew Point: 33°   Wind: 10mph
Humidity: 65%   Direction: 270°W
Pressure: 30.09"   Gusts: NA
Location:  36.21°N, 81.78°W
Report Text: KTNB 301355Z AUTO 27009KT 10SM CLR 07/01 A3009 RMK AO2 T00660005
Loading
Personal Weather Stations






























Interactive Weather Map
Tropical Storm Tracking
New forecast layout! Learn more

10-Day Weather Forecast

Advertisements
Track Severe Weather on mobile